createdAt,value
2018-12-12T00:00:35.295Z,84.78
2018-12-12T00:03:04.015Z,84.83
2018-12-12T00:05:32.665Z,85.04
2018-12-12T00:08:01.307Z,84.55
2018-12-12T00:10:30.071Z,84.18
2018-12-12T00:12:59.252Z,84.42
2018-12-12T00:15:28.547Z,84.28
2018-12-12T00:17:58.336Z,84.23
2018-12-12T00:20:27.555Z,84.29
2018-12-12T00:22:56.676Z,84.44
2018-12-12T00:25:25.849Z,84.56
2018-12-12T00:27:54.961Z,84.52
2018-12-12T00:30:23.712Z,83.77
2018-12-12T00:32:52.429Z,84.16
2018-12-12T00:35:21.348Z,84.36
2018-12-12T00:37:50.011Z,84.20
2018-12-12T00:40:19.088Z,84.28
2018-12-12T00:43:50.138Z,84.32
2018-12-12T00:46:18.790Z,84.38
2018-12-12T00:48:47.430Z,84.47
2018-12-12T00:51:16.107Z,84.53
2018-12-12T00:53:44.777Z,85.08
2018-12-12T00:56:13.473Z,84.61
2018-12-12T00:58:42.287Z,84.26
2018-12-12T01:01:11.143Z,84.61
2018-12-12T01:03:40.248Z,84.11
2018-12-12T01:06:09.037Z,84.03
2018-12-12T01:08:37.690Z,84.13
2018-12-12T01:11:11.626Z,84.33
2018-12-12T01:13:40.736Z,83.99
2018-12-12T01:16:09.655Z,84.43
2018-12-12T01:18:38.539Z,84.69
2018-12-12T01:21:07.336Z,84.45
2018-12-12T01:23:36.530Z,84.54
2018-12-12T01:26:05.239Z,84.51
2018-12-12T01:28:34.341Z,84.35
2018-12-12T01:31:03.334Z,84.55
2018-12-12T01:33:32.099Z,84.59
2018-12-12T01:36:01.013Z,84.37
2018-12-12T01:38:29.673Z,84.40
2018-12-12T01:40:58.462Z,84.20
2018-12-12T01:43:27.152Z,84.41
2018-12-12T01:45:56.247Z,83.93
2018-12-12T01:48:24.888Z,84.60
2018-12-12T01:50:53.473Z,84.28
2018-12-12T01:53:22.167Z,83.98
2018-12-12T01:55:51.093Z,84.05
2018-12-12T01:58:19.935Z,84.20
2018-12-12T02:00:48.665Z,83.74
2018-12-12T02:03:17.573Z,83.85
2018-12-12T02:05:46.358Z,83.65
2018-12-12T02:08:15.353Z,83.94
2018-12-12T02:10:44.186Z,84.12
2018-12-12T02:13:24.099Z,83.89
2018-12-12T02:15:52.753Z,84.01
2018-12-12T02:18:21.687Z,83.91
2018-12-12T02:20:50.388Z,83.67
2018-12-12T02:23:19.439Z,83.63
2018-12-12T02:25:48.633Z,83.77
2018-12-12T02:28:17.633Z,84.03
2018-12-12T02:30:46.289Z,83.70
2018-12-12T02:33:15.287Z,83.71
2018-12-12T02:35:44.274Z,83.51
2018-12-12T02:38:19.576Z,83.84
2018-12-12T02:40:48.510Z,83.68
2018-12-12T02:43:17.655Z,83.51
2018-12-12T02:45:46.776Z,83.57
2018-12-12T02:48:16.388Z,84.02
2018-12-12T02:50:45.122Z,84.08
2018-12-12T02:53:13.804Z,83.58
2018-12-12T02:55:42.585Z,83.70
2018-12-12T02:58:11.343Z,83.78
2018-12-12T03:00:40.174Z,83.99
2018-12-12T03:03:08.899Z,83.64
2018-12-12T03:05:37.575Z,83.65
2018-12-12T03:08:06.249Z,83.41
2018-12-12T03:10:35.274Z,83.77
2018-12-12T03:13:04.540Z,83.71
2018-12-12T03:15:33.225Z,83.80
2018-12-12T03:18:02.138Z,84.03
2018-12-12T03:20:30.789Z,83.68
2018-12-12T03:22:59.838Z,83.67
2018-12-12T03:25:28.835Z,83.45
2018-12-12T03:27:57.529Z,84.14
2018-12-12T03:30:26.639Z,83.82
2018-12-12T03:32:55.845Z,83.93
2018-12-12T03:35:24.798Z,84.04
2018-12-12T03:37:53.738Z,84.28
2018-12-12T03:40:23.088Z,84.08
2018-12-12T03:42:53.339Z,84.26
2018-12-12T03:45:22.006Z,84.44
2018-12-12T03:47:50.676Z,84.19
2018-12-12T03:50:19.290Z,84.01
2018-12-12T03:52:47.996Z,84.69
2018-12-12T03:55:16.679Z,83.76
2018-12-12T03:57:45.315Z,83.89
2018-12-12T04:00:14.301Z,84.23
2018-12-12T04:02:42.977Z,84.12
2018-12-12T04:05:12.266Z,84.48
2018-12-12T04:07:41.011Z,84.51
2018-12-12T04:10:09.880Z,84.19
2018-12-12T04:12:39.159Z,84.33
2018-12-12T04:15:08.134Z,84.83
2018-12-12T04:17:36.804Z,84.22
2018-12-12T04:20:06.274Z,84.46
2018-12-12T04:22:35.095Z,84.02
2018-12-12T04:25:04.031Z,84.02
2018-12-12T04:27:32.884Z,84.49
2018-12-12T04:30:01.555Z,83.99
2018-12-12T04:32:30.563Z,83.79
2018-12-12T04:34:59.156Z,83.68
2018-12-12T04:37:27.797Z,83.68
2018-12-12T04:39:56.486Z,83.78
2018-12-12T04:42:25.170Z,83.96
2018-12-12T04:44:53.823Z,83.94
2018-12-12T04:47:22.754Z,84.04
2018-12-12T04:49:51.378Z,83.46
2018-12-12T04:52:20.164Z,83.82
2018-12-12T04:54:49.106Z,83.89
2018-12-12T04:57:17.714Z,83.41
2018-12-12T04:59:46.646Z,83.87
2018-12-12T05:02:20.068Z,83.63
2018-12-12T05:04:49.636Z,83.39
2018-12-12T05:07:18.422Z,83.29
2018-12-12T05:10:01.717Z,83.72
2018-12-12T05:12:30.669Z,83.84
2018-12-12T05:14:59.402Z,83.98
2018-12-12T05:17:28.576Z,83.81
2018-12-12T05:19:57.262Z,83.44
2018-12-12T05:22:26.126Z,83.44
2018-12-12T05:24:54.853Z,83.61
2018-12-12T05:27:23.499Z,83.84
2018-12-12T05:29:52.391Z,84.14
2018-12-12T05:32:21.124Z,83.90
2018-12-12T05:34:49.891Z,84.13
2018-12-12T05:37:18.811Z,83.96
2018-12-12T05:39:47.958Z,83.91
2018-12-12T05:42:16.773Z,83.67
2018-12-12T05:44:45.797Z,83.93
2018-12-12T05:47:14.553Z,83.76
2018-12-12T05:49:43.427Z,83.61
2018-12-12T05:52:12.076Z,83.51
2018-12-12T05:54:40.803Z,83.49
2018-12-12T05:57:09.548Z,83.44
2018-12-12T05:59:38.409Z,83.68
2018-12-12T06:02:07.169Z,83.34
2018-12-12T06:04:36.206Z,83.25
2018-12-12T06:07:04.932Z,83.09
2018-12-12T06:09:33.875Z,83.09
2018-12-12T06:12:02.844Z,83.39
2018-12-12T06:14:31.834Z,82.94
2018-12-12T06:17:00.705Z,83.04
2018-12-12T06:19:29.556Z,83.55
2018-12-12T06:21:58.413Z,83.27
2018-12-12T06:24:27.565Z,82.95
2018-12-12T06:26:56.362Z,83.14
2018-12-12T06:29:25.278Z,82.98
2018-12-12T06:31:54.140Z,83.06
2018-12-12T06:34:22.769Z,83.00
2018-12-12T06:36:51.370Z,82.99
2018-12-12T06:39:20.038Z,83.17
2018-12-12T06:41:48.675Z,83.04
2018-12-12T06:44:17.478Z,83.15
2018-12-12T06:46:46.209Z,83.27
2018-12-12T06:49:15.009Z,82.98
2018-12-12T06:51:43.914Z,83.11
2018-12-12T06:54:12.644Z,83.04
2018-12-12T06:56:41.616Z,83.01
2018-12-12T06:59:10.835Z,83.32
2018-12-12T07:01:39.967Z,83.06
2018-12-12T07:04:08.693Z,83.01
2018-12-12T07:06:38.024Z,83.05
2018-12-12T07:09:09.204Z,83.16
2018-12-12T07:11:38.158Z,83.56
2018-12-12T07:14:07.517Z,83.34
2018-12-12T07:16:36.810Z,83.68
2018-12-12T07:19:05.811Z,83.58
2018-12-12T07:21:34.904Z,83.54
2018-12-12T07:24:05.341Z,83.50
2018-12-12T07:26:34.360Z,82.89
2018-12-12T07:29:03.451Z,83.07
2018-12-12T07:31:32.527Z,83.16
2018-12-12T07:34:01.834Z,83.01
2018-12-12T07:36:30.820Z,83.12
2018-12-12T07:38:59.837Z,83.24
2018-12-12T07:41:28.810Z,83.30
2018-12-12T07:43:57.560Z,83.19
2018-12-12T07:46:26.924Z,83.28
2018-12-12T07:48:56.040Z,83.38
2018-12-12T07:51:25.069Z,83.04
2018-12-12T07:53:53.974Z,83.20
2018-12-12T07:56:23.478Z,83.26
2018-12-12T07:58:52.375Z,83.08
2018-12-12T08:01:21.093Z,82.87
2018-12-12T08:03:50.351Z,83.28
2018-12-12T08:06:19.865Z,83.30
2018-12-12T08:08:49.206Z,82.95
2018-12-12T08:11:18.304Z,83.28
2018-12-12T08:13:47.100Z,82.90
2018-12-12T08:16:15.893Z,82.71
2018-12-12T08:18:44.645Z,83.02
2018-12-12T08:21:13.319Z,83.06
2018-12-12T08:23:42.123Z,82.87
2018-12-12T08:26:10.947Z,82.75
2018-12-12T08:28:39.738Z,82.71
2018-12-12T08:31:08.919Z,82.75
2018-12-12T08:33:38.046Z,82.47
2018-12-12T08:36:06.680Z,82.39
2018-12-12T08:38:36.761Z,82.32
2018-12-12T08:41:06.224Z,82.38
2018-12-12T08:43:35.694Z,82.49
2018-12-12T08:46:04.339Z,82.14
2018-12-12T08:48:33.277Z,81.89
2018-12-12T08:51:02.035Z,82.28
2018-12-12T08:53:30.773Z,81.65
2018-12-12T08:55:59.845Z,81.75
2018-12-12T08:58:28.805Z,81.87
2018-12-12T09:00:57.752Z,81.24
2018-12-12T09:03:26.761Z,81.65
2018-12-12T09:05:55.775Z,81.06
2018-12-12T09:08:24.389Z,81.37
2018-12-12T09:10:53.333Z,80.97
2018-12-12T09:13:22.097Z,81.50
2018-12-12T09:15:50.820Z,81.34
2018-12-12T09:18:19.576Z,81.50
2018-12-12T09:20:48.261Z,81.34
2018-12-12T09:23:17.148Z,81.13
2018-12-12T09:25:45.881Z,80.89
2018-12-12T09:28:14.788Z,81.03
2018-12-12T09:30:43.474Z,81.09
2018-12-12T09:33:12.176Z,80.95
2018-12-12T09:35:41.105Z,81.16
2018-12-12T09:38:09.770Z,81.27
2018-12-12T09:40:38.991Z,80.77
2018-12-12T09:43:07.969Z,81.21
2018-12-12T09:45:36.683Z,80.86
2018-12-12T09:48:05.772Z,80.47
2018-12-12T09:50:34.980Z,80.66
2018-12-12T09:53:03.878Z,80.76
2018-12-12T09:55:33.529Z,80.39
2018-12-12T09:58:02.134Z,80.24
2018-12-12T10:00:31.050Z,80.19
2018-12-12T10:02:59.912Z,80.57
2018-12-12T10:05:28.717Z,80.19
2018-12-12T10:07:57.634Z,80.00
2018-12-12T10:10:26.355Z,80.54
2018-12-12T10:12:55.203Z,80.04
2018-12-12T10:15:24.212Z,80.45
2018-12-12T10:17:53.087Z,80.15
2018-12-12T10:20:22.194Z,80.09
2018-12-12T10:22:50.878Z,80.19
2018-12-12T10:25:20.657Z,79.90
2018-12-12T10:27:49.545Z,80.44
2018-12-12T10:30:18.475Z,80.28
2018-12-12T10:32:47.421Z,79.97
2018-12-12T10:35:16.334Z,80.35
2018-12-12T10:37:45.081Z,80.41
2018-12-12T10:40:14.442Z,80.57
2018-12-12T10:42:43.409Z,80.08
2018-12-12T10:45:12.076Z,80.31
2018-12-12T10:47:41.157Z,80.62
2018-12-12T10:50:11.326Z,80.13
2018-12-12T10:52:40.209Z,79.93
2018-12-12T10:55:09.462Z,80.22
2018-12-12T10:57:38.590Z,80.18
2018-12-12T11:00:12.906Z,80.48
2018-12-12T11:02:46.476Z,80.41
2018-12-12T11:05:15.594Z,79.88
2018-12-12T11:07:44.562Z,80.30
2018-12-12T11:10:13.566Z,80.11
2018-12-12T11:12:42.901Z,80.25
2018-12-12T11:15:11.992Z,80.22
2018-12-12T11:17:40.749Z,79.67
2018-12-12T11:20:09.976Z,79.91
2018-12-12T11:22:39.083Z,79.91
2018-12-12T11:25:09.427Z,80.30
2018-12-12T11:27:38.554Z,79.97
2018-12-12T11:30:07.879Z,79.86
2018-12-12T11:32:37.018Z,80.15
2018-12-12T11:35:05.974Z,79.72
2018-12-12T11:37:34.876Z,79.93
2018-12-12T11:40:04.385Z,80.19
2018-12-12T11:42:33.245Z,80.07
2018-12-12T11:45:01.972Z,80.23
2018-12-12T11:47:30.998Z,80.19
2018-12-12T11:49:59.899Z,80.31
2018-12-12T11:52:28.990Z,80.48
2018-12-12T11:54:58.091Z,80.19
2018-12-12T11:57:27.513Z,80.21
2018-12-12T11:59:56.292Z,80.19
2018-12-12T12:02:25.317Z,80.22
2018-12-12T12:04:54.091Z,80.00
2018-12-12T12:07:22.834Z,80.12
2018-12-12T12:09:51.488Z,80.16
2018-12-12T12:12:20.226Z,80.50
2018-12-12T12:14:48.918Z,80.18
2018-12-12T12:17:17.788Z,80.28
2018-12-12T12:19:46.374Z,80.47
2018-12-12T12:22:14.977Z,80.48
2018-12-12T12:24:43.823Z,80.22
2018-12-12T12:27:12.661Z,80.76
2018-12-12T12:29:41.409Z,80.71
2018-12-12T12:32:10.356Z,80.64
2018-12-12T12:34:39.155Z,80.68
2018-12-12T12:37:08.379Z,80.87
2018-12-12T12:39:37.435Z,81.02
2018-12-12T12:42:06.263Z,81.09
2018-12-12T12:44:34.896Z,81.21
2018-12-12T12:47:03.615Z,81.11
2018-12-12T12:49:32.448Z,81.33
2018-12-12T12:52:01.323Z,81.31
2018-12-12T12:54:30.127Z,81.16
2018-12-12T12:56:58.783Z,81.25
2018-12-12T12:59:27.481Z,81.07
2018-12-12T13:01:56.769Z,80.81
2018-12-12T13:04:31.731Z,81.00
2018-12-12T13:07:00.416Z,81.32
2018-12-12T13:09:29.504Z,81.55
2018-12-12T13:11:58.390Z,81.34
2018-12-12T13:14:27.875Z,81.68
2018-12-12T13:16:57.023Z,81.81
2018-12-12T13:19:25.800Z,81.51
2018-12-12T13:21:54.519Z,81.42
2018-12-12T13:24:23.607Z,81.58
2018-12-12T13:26:53.563Z,81.81
2018-12-12T13:29:22.696Z,82.01
2018-12-12T13:31:51.549Z,81.94
2018-12-12T13:34:20.350Z,81.72
2018-12-12T13:36:49.058Z,81.82
2018-12-12T13:39:17.912Z,81.88
2018-12-12T13:44:39.446Z,81.61
2018-12-12T13:47:08.592Z,81.77
2018-12-12T13:49:37.692Z,81.59
2018-12-12T13:52:06.511Z,81.46
2018-12-12T13:54:35.415Z,81.48
2018-12-12T13:57:04.457Z,81.75
2018-12-12T13:59:33.387Z,81.44
2018-12-12T14:02:02.160Z,81.15
2018-12-12T14:04:30.914Z,81.30
2018-12-12T14:06:59.638Z,81.22
2018-12-12T14:09:28.626Z,81.36
2018-12-12T14:11:57.264Z,81.30
2018-12-12T14:14:26.407Z,81.16
2018-12-12T14:16:55.514Z,81.13
2018-12-12T14:19:24.432Z,80.95
2018-12-12T14:21:53.286Z,80.97
2018-12-12T14:24:22.317Z,81.10
2018-12-12T14:26:51.573Z,81.20
2018-12-12T14:29:20.528Z,81.14
2018-12-12T14:31:49.546Z,81.39
2018-12-12T14:34:18.773Z,81.08
2018-12-12T14:36:47.743Z,81.11
2018-12-12T14:39:16.838Z,81.03
2018-12-12T14:41:46.034Z,81.42
2018-12-12T14:44:15.056Z,81.37
2018-12-12T14:46:44.727Z,81.22
2018-12-12T14:49:14.757Z,81.36
2018-12-12T14:51:44.876Z,81.21
2018-12-12T14:54:14.540Z,81.52
2018-12-12T14:56:43.545Z,81.14
2018-12-12T14:59:12.639Z,80.96
2018-12-12T15:01:41.654Z,81.28
2018-12-12T15:04:10.353Z,81.04
2018-12-12T15:06:39.391Z,81.43
2018-12-12T15:09:09.036Z,81.39
2018-12-12T15:11:37.672Z,81.34
2018-12-12T15:14:06.852Z,81.35
2018-12-12T15:16:35.918Z,81.77
2018-12-12T15:19:05.087Z,81.31
2018-12-12T15:21:34.134Z,81.34
2018-12-12T15:24:04.270Z,81.35
2018-12-12T15:26:33.111Z,81.25
2018-12-12T15:29:02.340Z,81.54
2018-12-12T15:31:31.367Z,81.08
2018-12-12T15:34:01.014Z,81.19
2018-12-12T15:36:30.151Z,81.34
2018-12-12T15:38:59.297Z,81.54
2018-12-12T15:41:28.233Z,81.58
2018-12-12T15:43:57.061Z,81.46
2018-12-12T15:46:26.072Z,81.74
2018-12-12T15:48:55.968Z,81.26
2018-12-12T15:51:24.825Z,81.67
2018-12-12T15:53:53.731Z,81.60
2018-12-12T15:56:22.842Z,81.50
2018-12-12T15:58:52.188Z,81.36
2018-12-12T16:01:21.195Z,81.50
2018-12-12T16:03:50.060Z,81.65
2018-12-12T16:06:18.787Z,81.42
2018-12-12T16:08:47.878Z,81.32
2018-12-12T16:11:16.628Z,81.30
2018-12-12T16:13:45.741Z,81.52
2018-12-12T16:16:14.731Z,81.69
2018-12-12T16:18:44.984Z,81.51
2018-12-12T16:21:14.046Z,81.44
2018-12-12T16:23:43.069Z,81.49
2018-12-12T16:26:12.239Z,81.35
2018-12-12T16:28:41.148Z,81.40
2018-12-12T16:31:10.234Z,81.55
2018-12-12T16:33:39.248Z,81.29
2018-12-12T16:36:08.409Z,81.36
2018-12-12T16:38:37.640Z,81.47
2018-12-12T16:41:06.820Z,81.44
2018-12-12T16:43:35.881Z,81.48
2018-12-12T16:46:04.924Z,81.55
2018-12-12T16:48:33.744Z,81.48
2018-12-12T16:51:02.851Z,81.53
2018-12-12T16:53:31.807Z,81.41
2018-12-12T16:56:00.731Z,81.17
2018-12-12T16:58:29.691Z,81.58
2018-12-12T17:00:58.924Z,81.60
2018-12-12T17:03:28.240Z,81.49
2018-12-12T17:05:57.206Z,81.23
2018-12-12T17:08:26.173Z,81.23
2018-12-12T17:10:55.235Z,81.15
2018-12-12T17:13:23.851Z,80.92
2018-12-12T17:15:52.810Z,81.06
2018-12-12T17:18:21.561Z,81.00
2018-12-12T17:20:50.916Z,81.12
2018-12-12T17:23:19.829Z,80.92
2018-12-12T17:25:49.900Z,80.96
2018-12-12T17:28:18.548Z,80.93
2018-12-12T17:30:47.626Z,80.82
2018-12-12T17:33:16.641Z,80.67
2018-12-12T17:35:45.354Z,80.63
2018-12-12T17:38:14.521Z,80.67
2018-12-12T17:40:44.683Z,80.58
2018-12-12T17:43:13.382Z,80.37
2018-12-12T17:45:42.325Z,80.66
2018-12-12T17:48:11.186Z,80.81
2018-12-12T17:50:40.210Z,80.59
2018-12-12T17:53:08.955Z,80.38
2018-12-12T17:55:38.297Z,80.41
2018-12-12T17:58:07.293Z,80.08
2018-12-12T18:00:36.345Z,80.35
2018-12-12T18:03:06.003Z,80.22
2018-12-12T18:05:34.878Z,80.21
2018-12-12T18:08:03.585Z,80.12
2018-12-12T18:10:32.261Z,80.35
2018-12-12T18:13:01.496Z,80.25
2018-12-12T18:15:30.428Z,80.20
2018-12-12T18:17:59.147Z,80.16
2018-12-12T18:20:27.901Z,79.96
2018-12-12T18:22:56.666Z,79.70
2018-12-12T18:25:25.431Z,79.91
2018-12-12T18:27:54.244Z,80.08
2018-12-12T18:30:23.221Z,79.89
2018-12-12T18:32:52.082Z,80.29
2018-12-12T18:35:21.912Z,79.85
2018-12-12T18:37:50.915Z,80.14
2018-12-12T18:40:19.757Z,80.06
2018-12-12T18:42:48.520Z,80.11
2018-12-12T18:45:17.349Z,80.11
2018-12-12T18:47:46.005Z,79.83
2018-12-12T18:50:15.026Z,80.12
2018-12-12T18:52:43.705Z,80.18
2018-12-12T18:55:12.502Z,80.14
2018-12-12T18:57:42.019Z,80.35
2018-12-12T19:00:10.950Z,80.44
2018-12-12T19:02:41.494Z,80.34
2018-12-12T19:05:10.395Z,80.65
2018-12-12T19:07:39.304Z,80.42
2018-12-12T19:10:08.239Z,80.18
2018-12-12T19:12:37.067Z,80.18
2018-12-12T19:15:08.114Z,80.42
2018-12-12T19:17:38.141Z,80.47
2018-12-12T19:20:08.239Z,80.40
2018-12-12T19:22:37.101Z,80.31
2018-12-12T19:25:06.438Z,80.13
2018-12-12T19:27:35.717Z,80.33
2018-12-12T19:30:05.587Z,80.02
2018-12-12T19:32:34.471Z,80.11
2018-12-12T19:35:03.839Z,80.23
2018-12-12T19:37:32.775Z,80.01
2018-12-12T19:40:01.504Z,80.16
2018-12-12T19:42:30.408Z,80.21
2018-12-12T19:44:59.272Z,80.12
2018-12-12T19:47:28.181Z,80.36
2018-12-12T19:49:58.082Z,80.20
2018-12-12T19:52:27.194Z,79.92
2018-12-12T19:54:56.374Z,80.04
2018-12-12T19:57:25.364Z,80.11
2018-12-12T19:59:54.602Z,80.08
2018-12-12T20:02:23.722Z,80.02
2018-12-12T20:04:52.806Z,80.45
2018-12-12T20:07:22.180Z,80.24
2018-12-12T20:09:51.363Z,80.34
2018-12-12T20:12:20.672Z,80.43
2018-12-12T20:14:49.870Z,80.33
2018-12-12T20:17:19.803Z,80.33
2018-12-12T20:19:48.829Z,80.30
2018-12-12T20:22:17.812Z,79.91
2018-12-12T20:24:47.517Z,80.22
2018-12-12T20:27:16.706Z,80.35
2018-12-12T20:29:45.816Z,79.94
2018-12-12T20:32:15.079Z,79.82
2018-12-12T20:34:44.590Z,80.00
2018-12-12T20:37:13.266Z,80.14
2018-12-12T20:39:42.101Z,80.32
2018-12-12T20:42:11.223Z,80.29
2018-12-12T20:44:40.407Z,80.24
2018-12-12T20:47:09.163Z,79.82
2018-12-12T20:49:37.987Z,79.73
2018-12-12T20:52:07.716Z,79.89
2018-12-12T20:54:36.541Z,79.97
2018-12-12T20:57:05.730Z,79.91
2018-12-12T20:59:34.578Z,80.23
2018-12-12T21:02:03.972Z,80.27
2018-12-12T21:04:33.193Z,80.20
2018-12-12T21:07:02.610Z,80.35
2018-12-12T21:09:31.479Z,80.41
2018-12-12T21:12:00.559Z,80.86
2018-12-12T21:14:29.440Z,80.35
2018-12-12T21:16:59.747Z,80.56
2018-12-12T21:19:28.486Z,80.79
2018-12-12T21:21:57.315Z,80.91
2018-12-12T21:24:26.105Z,80.37
2018-12-12T21:26:55.157Z,80.19
2018-12-12T21:29:23.911Z,80.16
2018-12-12T21:31:52.928Z,80.15
2018-12-12T21:34:21.729Z,80.01
2018-12-12T21:36:50.505Z,79.73
2018-12-12T21:39:19.693Z,79.55
2018-12-12T21:41:48.798Z,79.80
2018-12-12T21:44:17.653Z,79.46
2018-12-12T21:46:47.084Z,79.19
2018-12-12T21:49:15.934Z,79.17
2018-12-12T21:51:44.914Z,79.44
2018-12-12T21:54:13.708Z,79.58
2018-12-12T21:56:42.430Z,79.53
2018-12-12T21:59:11.244Z,80.01
2018-12-12T22:01:40.001Z,80.16
2018-12-12T22:04:09.396Z,80.05
2018-12-12T22:06:38.150Z,79.98
2018-12-12T22:09:08.938Z,79.76
2018-12-12T22:11:37.926Z,79.87
2018-12-12T22:14:08.422Z,80.20
2018-12-12T22:16:37.881Z,80.18
2018-12-12T22:19:06.613Z,79.99
2018-12-12T22:21:35.971Z,80.07
2018-12-12T22:24:05.414Z,79.80
2018-12-12T22:26:34.152Z,80.04
2018-12-12T22:29:03.812Z,80.02
2018-12-12T22:31:32.608Z,79.76
2018-12-12T22:34:02.138Z,80.05
2018-12-12T22:36:30.822Z,80.02
2018-12-12T22:38:59.847Z,79.86
2018-12-12T22:41:28.930Z,79.60
2018-12-12T22:43:58.863Z,79.45
2018-12-12T22:46:27.959Z,79.74
2018-12-12T22:48:56.788Z,79.66
2018-12-12T22:51:25.783Z,79.25
2018-12-12T22:53:54.783Z,79.44
2018-12-12T22:56:24.063Z,79.45
2018-12-12T22:58:52.756Z,79.07
2018-12-12T23:01:24.494Z,79.45
2018-12-12T23:03:53.916Z,79.25
2018-12-12T23:06:22.732Z,79.44
2018-12-12T23:08:51.913Z,79.47
2018-12-12T23:11:20.623Z,79.39
2018-12-12T23:13:49.359Z,79.36
2018-12-12T23:16:18.310Z,79.86
2018-12-12T23:18:47.006Z,79.77
2018-12-12T23:21:15.763Z,79.79
2018-12-12T23:23:44.432Z,80.00
2018-12-12T23:26:13.733Z,80.37
2018-12-12T23:28:42.479Z,80.46
2018-12-12T23:31:11.358Z,80.55
2018-12-12T23:33:40.292Z,80.64
2018-12-12T23:36:09.223Z,80.62
2018-12-12T23:38:37.913Z,81.10
2018-12-12T23:41:06.951Z,81.25
2018-12-12T23:43:35.788Z,81.25
2018-12-12T23:46:04.975Z,81.12
2018-12-12T23:48:33.627Z,81.22
2018-12-12T23:51:02.494Z,81.06
2018-12-12T23:53:31.569Z,80.76
2018-12-12T23:56:00.727Z,81.08
2018-12-12T23:58:29.807Z,81.10
